Time;durP1;ratioP1;P1;durP2;ratioP2;P2;SDS_P1;SDS_P2;PMS_P1;PMS_P2;Temp;Humidity;BMP_temperature;BMP_pressure;BME280_temperature;BME280_humidity;BME280_pressure;Samples;Min_cycle;Max_cycle;Signal;HPM_P1;HPM_P2
2022/10/04 00:01:12;;;;;;;1.10;0.40;;;;;;;16.47;48.31;99012.50;4956646;28;20277;-86
2022/10/04 00:03:45;;;;;;;5.13;0.80;;;;;;;16.54;48.07;99011.09;4957479;28;20211;-86
2022/10/04 00:06:19;;;;;;;1.13;0.40;;;;;;;16.33;48.42;99018.03;4957804;28;20271;-86
2022/10/04 00:08:51;;;;;;;1.47;0.77;;;;;;;16.33;48.44;99015.38;4972693;28;20628;-86
2022/10/04 00:11:30;;;;;;;1.30;0.63;;;;;;;16.18;48.85;99017.41;4957516;28;20580;-87
2022/10/04 00:14:27;;;;;;;1.70;0.60;;;;;;;16.26;48.69;99020.31;4957939;28;20176;-87
2022/10/04 00:16:55;;;;;;;2.80;0.90;;;;;;;16.21;48.83;99024.28;4960720;28;20567;-87
2022/10/04 00:19:44;;;;;;;2.90;0.87;;;;;;;16.11;49.20;99018.00;4957290;28;20180;-87
2022/10/04 00:22:12;;;;;;;2.40;0.43;;;;;;;16.13;48.99;99006.34;4957580;29;20321;-86
2022/10/04 00:25:00;;;;;;;0.97;0.43;;;;;;;15.96;49.26;99020.00;4957222;28;20253;-87
2022/10/04 00:27:27;;;;;;;1.73;0.60;;;;;;;16.22;48.67;99015.38;4957757;28;20172;-86
2022/10/04 00:30:01;;;;;;;1.17;0.53;;;;;;;16.08;49.00;99013.81;4956076;28;20788;-85
2022/10/04 00:32:39;;;;;;;0.77;0.30;;;;;;;15.97;49.27;99017.28;4956146;28;20202;-87
2022/10/04 00:35:26;;;;;;;3.10;0.50;;;;;;;16.10;48.82;99018.97;4957068;28;20621;-86
2022/10/04 00:38:06;;;;;;;2.63;0.50;;;;;;;16.18;48.57;99017.41;4956983;28;20182;-86
2022/10/04 00:40:34;;;;;;;0.40;0.30;;;;;;;15.84;49.31;99016.53;4956034;28;20179;-88
2022/10/04 00:43:22;;;;;;;1.43;0.57;;;;;;;15.99;48.89;99017.13;4957101;28;20746;-86
2022/10/04 00:45:56;;;;;;;5.37;0.70;;;;;;;16.03;48.61;99015.13;4973150;28;20179;-85
2022/10/04 00:48:42;;;;;;;2.00;1.20;;;;;;;16.14;48.25;99010.66;4955861;28;20178;-85
2022/10/04 00:51:08;;;;;;;0.93;0.60;;;;;;;15.99;48.62;99015.34;4957076;28;20174;-85
2022/10/04 00:53:52;;;;;;;1.13;0.60;;;;;;;15.83;49.00;99001.59;4955742;28;20275;-86
2022/10/04 00:56:26;;;;;;;1.07;0.57;;;;;;;15.83;49.04;99006.91;4956919;28;20595;-86
2022/10/04 00:58:56;;;;;;;5.47;0.50;;;;;;;15.67;49.64;99008.19;4956667;28;20266;-86
2022/10/04 01:01:24;;;;;;;2.20;0.60;;;;;;;15.58;49.83;99008.88;4956101;28;20692;-86
2022/10/04 01:03:52;;;;;;;0.60;0.40;;;;;;;15.77;49.43;99004.75;4956439;28;20301;-85
2022/10/04 01:06:20;;;;;;;1.30;0.70;;;;;;;15.76;49.49;99007.47;4956729;28;20190;-85
2022/10/04 01:08:53;;;;;;;2.77;0.70;;;;;;;15.55;49.75;99019.66;4956449;28;20185;-85
2022/10/04 01:11:22;;;;;;;1.13;0.50;;;;;;;15.84;49.09;99013.03;4955457;28;20182;-86
2022/10/04 01:13:58;;;;;;;3.67;0.57;;;;;;;15.86;48.96;99008.47;4955397;28;20208;-85
2022/10/04 01:16:32;;;;;;;3.07;0.70;;;;;;;15.85;49.03;99012.91;4956267;28;20181;-86
2022/10/04 01:19:27;;;;;;;4.07;0.60;;;;;;;15.90;48.73;99021.34;4956844;28;20237;-85
2022/10/04 01:21:58;;;;;;;0.60;0.50;;;;;;;15.77;48.85;99019.75;4955280;28;20173;-84
2022/10/04 01:24:23;;;;;;;1.20;0.50;;;;;;;15.87;48.98;99011.00;4956065;28;20205;-86
2022/10/04 01:26:49;;;;;;;6.83;1.10;;;;;;;15.83;48.71;99020.09;4956149;28;20712;-84
2022/10/04 01:29:22;;;;;;;0.83;0.50;;;;;;;15.96;48.32;99014.72;4955958;28;20205;-87
2022/10/04 01:31:50;;;;;;;0.77;0.37;;;;;;;16.18;47.88;99012.13;4955116;28;20539;-88
2022/10/04 01:34:21;;;;;;;0.73;0.43;;;;;;;16.20;47.93;99028.72;4955969;28;20259;-85
2022/10/04 01:36:48;;;;;;;3.60;0.70;;;;;;;16.17;47.63;99028.94;4971413;28;20337;-87
2022/10/04 01:39:15;;;;;;;4.53;0.90;;;;;;;16.17;47.83;99028.13;4955909;28;20178;-87
2022/10/04 01:41:47;;;;;;;2.63;1.47;;;;;;;16.15;47.75;99022.09;4954843;28;20648;-87
2022/10/04 01:44:32;;;;;;;1.10;0.37;;;;;;;16.27;47.51;99029.91;4970915;28;20199;-87
2022/10/04 01:47:07;;;;;;;3.13;0.80;;;;;;;16.23;47.44;99022.34;4970949;28;20329;-87
2022/10/04 01:49:35;;;;;;;2.27;1.20;;;;;;;16.20;47.39;99028.72;4955968;28;20166;-87
2022/10/04 01:52:19;;;;;;;2.73;0.80;;;;;;;16.16;47.57;99022.00;4955923;28;20174;-86
2022/10/04 01:54:57;;;;;;;1.70;1.03;;;;;;;16.09;47.68;99033.16;4955883;28;20250;-87
2022/10/04 01:57:30;;;;;;;1.70;0.60;;;;;;;16.04;47.71;99038.78;4954642;28;20269;-85
2022/10/04 02:00:01;;;;;;;1.10;0.47;;;;;;;15.75;48.44;99035.69;4970678;28;20174;-85
2022/10/04 02:02:36;;;;;;;0.70;0.50;;;;;;;16.02;47.99;99037.22;4955675;28;20193;-86
2022/10/04 02:05:05;;;;;;;1.30;0.40;;;;;;;15.89;48.25;99034.66;4954563;28;20175;-84
2022/10/04 02:07:32;;;;;;;2.73;0.70;;;;;;;15.93;48.15;99030.84;4955391;28;20198;-84
2022/10/04 02:10:03;;;;;;;1.63;0.50;;;;;;;16.07;47.58;99043.00;4955359;28;20182;-86
2022/10/04 02:12:30;;;;;;;3.13;0.73;;;;;;;15.80;48.50;99049.41;4955746;28;20554;-87
2022/10/04 02:15:00;;;;;;;6.73;0.80;;;;;;;15.96;48.00;99047.28;4955287;28;20176;-87
2022/10/04 02:17:30;;;;;;;1.83;0.70;;;;;;;15.92;48.19;99050.28;4955242;28;20175;-86
2022/10/04 02:19:57;;;;;;;5.40;0.97;;;;;;;16.08;47.80;99047.31;4955293;28;20190;-86
2022/10/04 02:22:24;;;;;;;0.80;0.40;;;;;;;15.91;48.12;99048.59;4955456;28;20174;-85
2022/10/04 02:24:53;;;;;;;1.70;0.40;;;;;;;16.00;47.81;99047.91;4955143;28;20193;-87
2022/10/04 02:27:19;;;;;;;1.63;0.70;;;;;;;15.92;48.25;99039.72;4955139;28;20238;-87
2022/10/04 02:29:44;;;;;;;3.10;0.57;;;;;;;15.95;48.64;99045.63;4953915;28;20243;-87
2022/10/04 02:34:57;;;;;;;2.10;0.60;;;;;;;15.77;48.86;99051.47;4955658;29;20173;-84
2022/10/04 02:37:24;;;;;;;1.00;0.50;;;;;;;15.75;48.76;99056.00;4955514;28;20169;-86
2022/10/04 02:40:03;;;;;;;1.70;0.90;;;;;;;15.67;49.35;99061.84;4954939;28;20181;-86
2022/10/04 02:42:49;;;;;;;0.70;0.50;;;;;;;15.66;49.37;99065.47;4955454;28;20162;-87
2022/10/04 02:45:38;;;;;;;0.93;0.40;;;;;;;15.61;49.58;99056.19;4954049;28;20239;-86
2022/10/04 02:48:17;;;;;;;1.23;0.60;;;;;;;15.73;49.41;99066.69;4953956;28;20612;-85
2022/10/04 02:50:49;;;;;;;2.63;0.70;;;;;;;15.81;49.12;99068.75;4953994;28;20169;-86
2022/10/04 02:53:25;;;;;;;5.13;0.80;;;;;;;15.45;50.36;99066.16;4955202;29;20161;-85
2022/10/04 02:55:52;;;;;;;1.53;0.70;;;;;;;15.32;50.77;99067.09;4953957;28;20311;-85
2022/10/04 02:58:21;;;;;;;3.70;0.90;;;;;;;15.41;50.66;99065.53;4954848;28;20180;-85
2022/10/04 03:00:50;;;;;;;2.00;0.80;;;;;;;15.50;50.42;99069.34;4954839;28;20707;-86
2022/10/04 03:03:28;;;;;;;1.00;0.60;;;;;;;15.58;50.27;99072.28;4953821;28;20209;-85
2022/10/04 03:06:06;;;;;;;4.50;1.97;;;;;;;15.53;50.46;99066.50;4954859;28;20181;-86
2022/10/04 03:08:43;;;;;;;2.50;1.40;;;;;;;15.39;50.85;99075.38;4954808;28;20169;-87
2022/10/04 03:11:10;;;;;;;2.70;0.97;;;;;;;15.27;51.25;99076.28;4953830;28;20173;-87
2022/10/04 03:13:38;;;;;;;3.67;1.10;;;;;;;15.12;52.11;99067.66;4954012;28;20189;-85
2022/10/04 03:16:04;;;;;;;6.43;1.40;;;;;;;15.08;52.20;99079.41;4954704;28;20169;-84
2022/10/04 03:18:31;;;;;;;2.97;1.20;;;;;;;15.24;51.68;99074.72;4954692;28;20607;-86
2022/10/04 03:21:01;;;;;;;3.63;1.40;;;;;;;15.09;51.83;99067.91;4954651;28;20239;-85
2022/10/04 03:23:29;;;;;;;4.17;1.63;;;;;;;15.11;52.17;99068.63;4954678;28;20196;-85
2022/10/04 03:25:59;;;;;;;3.70;1.00;;;;;;;15.10;52.12;99072.22;4958341;28;20180;-85
2022/10/04 03:28:25;;;;;;;3.33;1.10;;;;;;;15.06;52.21;99065.50;4958534;28;20195;-85
2022/10/04 03:30:51;;;;;;;2.77;1.30;;;;;;;14.99;52.42;99079.25;4957178;28;20236;-87
2022/10/04 03:33:22;;;;;;;2.47;0.83;;;;;;;15.01;51.96;99080.81;4958185;28;20211;-85
2022/10/04 03:35:53;;;;;;;4.73;1.13;;;;;;;15.01;52.35;99083.44;4958120;28;20264;-86
2022/10/04 03:38:21;;;;;;;5.50;0.93;;;;;;;14.98;52.33;99082.81;4958128;28;20181;-86
2022/10/04 03:40:52;;;;;;;1.40;0.70;;;;;;;15.04;52.18;99080.56;4958058;28;20189;-86
2022/10/04 03:43:21;;;;;;;2.03;0.90;;;;;;;15.09;51.86;99086.38;4957988;28;20196;-85
2022/10/04 03:45:47;;;;;;;1.27;0.70;;;;;;;15.03;51.96;99084.19;4957001;28;20247;-87
2022/10/04 03:48:17;;;;;;;2.67;0.97;;;;;;;15.05;52.03;99076.97;4958158;28;20651;-86
2022/10/04 03:50:47;;;;;;;2.10;0.80;;;;;;;14.98;52.15;99077.53;4958169;28;20523;-86
2022/10/04 03:53:41;;;;;;;2.60;0.97;;;;;;;14.86;52.51;99089.78;4973201;28;20607;-86
2022/10/04 03:56:10;;;;;;;1.33;0.70;;;;;;;14.97;52.11;99087.25;4959092;28;20283;-87
2022/10/04 03:58:35;;;;;;;1.67;0.83;;;;;;;14.91;52.15;99090.31;4956741;28;20192;-87
2022/10/04 04:01:14;;;;;;;1.63;1.00;;;;;;;14.87;52.05;99102.06;4958563;28;20320;-84
2022/10/04 04:04:12;;;;;;;1.20;0.63;;;;;;;14.74;52.67;99114.41;4956859;28;20559;-85
2022/10/04 04:06:58;;;;;;;5.83;1.20;;;;;;;14.71;52.75;99107.56;4956493;28;20270;-85
2022/10/04 04:09:41;;;;;;;2.23;0.93;;;;;;;14.73;52.78;99116.22;4957558;28;20172;-86
2022/10/04 04:12:17;;;;;;;2.40;0.80;;;;;;;14.57;53.10;99117.41;4957529;28;20204;-87
2022/10/04 04:14:47;;;;;;;3.67;1.23;;;;;;;14.77;52.71;99117.69;4956473;28;20271;-87
2022/10/04 04:17:24;;;;;;;4.93;1.60;;;;;;;14.70;52.87;99118.22;4957393;28;20199;-88
2022/10/04 04:19:51;;;;;;;3.57;1.27;;;;;;;14.67;53.04;99126.34;4956378;28;20195;-86
2022/10/04 04:22:18;;;;;;;1.83;0.90;;;;;;;14.70;53.02;99120.88;4957557;28;20637;-86
2022/10/04 04:24:44;;;;;;;2.53;0.87;;;;;;;14.59;53.56;99118.13;4956251;28;20208;-87
2022/10/04 04:27:14;;;;;;;1.80;0.90;;;;;;;14.49;53.72;99120.53;4957715;28;20194;-86
2022/10/04 04:29:51;;;;;;;3.70;1.40;;;;;;;14.29;54.81;99122.81;4957228;28;20199;-85
2022/10/04 04:32:23;;;;;;;2.77;1.07;;;;;;;14.39;55.01;99122.13;4957050;28;20250;-88
2022/10/04 04:35:05;;;;;;;3.33;0.93;;;;;;;14.34;55.07;99133.91;4955715;28;20611;-87
2022/10/04 04:37:32;;;;;;;5.07;1.30;;;;;;;14.26;55.28;99130.94;4956972;28;20172;-86
2022/10/04 04:40:17;;;;;;;2.40;1.20;;;;;;;14.25;55.63;99135.38;4956750;28;20695;-87
2022/10/04 04:42:44;;;;;;;2.53;0.90;;;;;;;14.07;56.20;99134.78;4957002;28;20179;-86
2022/10/04 04:45:14;;;;;;;4.10;1.43;;;;;;;14.19;55.89;99135.78;4956896;28;20720;-86
2022/10/04 04:47:45;;;;;;;2.03;1.10;;;;;;;14.23;55.56;99137.25;4957149;28;20618;-85
2022/10/04 04:50:20;;;;;;;1.57;1.07;;;;;;;14.22;55.82;99145.28;4957028;28;20176;-85
2022/10/04 04:52:51;;;;;;;2.57;1.17;;;;;;;14.27;55.62;99151.06;4956661;28;20655;-84
2022/10/04 04:55:20;;;;;;;2.43;0.80;;;;;;;14.16;56.07;99146.53;4957238;28;20184;-86
2022/10/04 04:57:52;;;;;;;3.67;1.10;;;;;;;14.22;55.95;99147.91;4956689;28;20187;-86
2022/10/04 05:00:20;;;;;;;2.50;1.37;;;;;;;14.33;55.78;99148.06;4956658;28;20171;-85
2022/10/04 05:02:54;;;;;;;3.20;1.10;;;;;;;14.45;55.43;99153.34;4956614;28;20181;-86
2022/10/04 05:05:21;;;;;;;2.20;0.77;;;;;;;14.28;55.72;99156.22;4971682;28;20189;-86
2022/10/04 05:07:48;;;;;;;1.73;0.90;;;;;;;14.42;55.38;99160.63;4957006;28;20602;-86
2022/10/04 05:10:29;;;;;;;2.20;1.10;;;;;;;14.40;55.40;99159.88;4956449;28;20279;-85
2022/10/04 05:12:55;;;;;;;3.57;1.27;;;;;;;14.46;55.41;99164.75;4956607;28;20196;-86
2022/10/04 05:15:21;;;;;;;5.27;1.00;;;;;;;14.37;55.40;99163.56;4955361;28;20191;-84
2022/10/04 05:17:47;;;;;;;5.80;1.30;;;;;;;14.60;54.87;99162.84;4956536;28;20259;-85
2022/10/04 05:20:14;;;;;;;7.50;1.33;;;;;;;14.58;55.16;99161.28;4955312;28;20282;-86
2022/10/04 05:22:45;;;;;;;6.47;1.60;;;;;;;14.78;54.33;99161.59;4955268;28;20185;-85
2022/10/04 05:25:25;;;;;;;4.37;1.20;;;;;;;15.00;53.78;99170.66;4956422;28;20597;-87
2022/10/04 05:27:53;;;;;;;2.93;0.93;;;;;;;15.02;53.21;99168.75;4956400;28;20164;-86
2022/10/04 05:30:35;;;;;;;2.50;1.13;;;;;;;15.19;53.10;99177.19;4956129;28;20196;-86
2022/10/04 05:33:07;;;;;;;5.70;2.53;;;;;;;15.18;53.04;99170.19;4955028;28;20351;-87
2022/10/04 05:35:57;;;;;;;6.23;1.83;;;;;;;15.29;53.10;99183.50;4955039;28;20268;-87
2022/10/04 05:39:04;;;;;;;2.40;1.17;;;;;;;15.36;52.07;99183.88;4954974;28;20181;-85
2022/10/04 05:41:43;;;;;;;1.80;0.87;;;;;;;15.60;51.50;99182.16;4954859;28;20276;-87
2022/10/04 05:44:24;;;;;;;2.03;0.90;;;;;;;15.79;51.00;99186.97;4956345;28;20588;-85
2022/10/04 05:46:51;;;;;;;2.27;0.90;;;;;;;15.91;50.45;99186.91;4955756;28;20161;-87
2022/10/04 05:49:19;;;;;;;1.10;0.70;;;;;;;16.23;49.83;99187.16;4956009;28;20540;-88
2022/10/04 05:52:00;;;;;;;4.43;0.80;;;;;;;16.23;49.50;99189.81;4955736;28;20181;-87
2022/10/04 05:54:28;;;;;;;0.97;0.60;;;;;;;16.45;48.88;99192.56;4971501;28;20217;-86
2022/10/04 05:57:07;;;;;;;1.33;0.67;;;;;;;16.92;48.18;99194.25;4955724;28;20649;-87
2022/10/04 05:59:44;;;;;;;1.43;0.63;;;;;;;17.19;46.92;99201.81;4955131;28;20191;-87
2022/10/04 06:02:43;;;;;;;1.33;0.70;;;;;;;17.42;46.23;99202.66;4956049;28;20168;-87
2022/10/04 06:05:47;;;;;;;1.47;0.57;;;;;;;17.63;45.90;99207.13;4956018;28;20167;-87
2022/10/04 06:08:28;;;;;;;1.93;0.77;;;;;;;18.56;43.62;99205.63;4954539;28;20266;-86
2022/10/04 06:11:07;;;;;;;3.20;1.00;;;;;;;19.09;42.90;99208.16;4955892;28;20187;-88
2022/10/04 06:13:51;;;;;;;3.77;0.93;;;;;;;19.60;41.11;99214.31;4955593;28;20279;-86
2022/10/04 06:16:38;;;;;;;3.23;1.10;;;;;;;20.25;40.26;99200.44;4954404;28;20181;-87
2022/10/04 06:19:13;;;;;;;4.67;1.03;;;;;;;20.68;38.91;99202.63;4954325;28;20189;-87
2022/10/04 06:22:06;;;;;;;2.93;0.90;;;;;;;20.63;39.38;99204.88;4955491;28;20259;-85
2022/10/04 06:24:36;;;;;;;2.27;0.87;;;;;;;20.65;38.77;99208.28;4954255;28;20252;-87
2022/10/04 06:27:09;;;;;;;1.03;0.53;;;;;;;20.46;39.06;99208.28;4954190;28;20197;-86
2022/10/04 06:29:42;;;;;;;3.83;0.83;;;;;;;20.42;39.35;99217.53;4970206;28;20232;-87
2022/10/04 06:32:58;;;;;;;2.00;0.80;;;;;;;21.20;38.87;99220.78;4955634;28;20181;-86
2022/10/04 06:35:29;;;;;;;1.77;1.10;;;;;;;21.56;37.30;99220.94;4953781;28;20201;-86
2022/10/04 06:38:32;;;;;;;3.23;0.50;;;;;;;21.61;37.39;99229.31;4955085;28;20174;-89
2022/10/04 06:41:16;;;;;;;3.00;0.93;;;;;;;22.21;36.61;99219.84;4955149;28;20188;-88
2022/10/04 06:43:44;;;;;;;1.40;0.53;;;;;;;22.21;36.05;99219.84;4955516;28;20165;-87
2022/10/04 06:46:25;;;;;;;0.80;0.50;;;;;;;22.12;36.11;99218.94;4955146;28;20628;-87
2022/10/04 06:49:52;;;;;;;1.77;0.60;;;;;;;22.25;36.19;99222.06;4954046;28;20192;-87
2022/10/04 06:52:47;;;;;;;2.57;0.47;;;;;;;22.41;35.55;99219.53;4962347;28;20617;-88
2022/10/04 06:55:30;;;;;;;2.70;0.77;;;;;;;22.60;35.46;99224.72;4972910;28;20184;-88
2022/10/04 06:58:31;;;;;;;1.83;0.50;;;;;;;22.76;35.09;99223.22;4955922;28;20283;-88
2022/10/04 07:01:18;;;;;;;1.60;0.50;;;;;;;22.38;34.91;99233.19;4958808;28;20268;-86
2022/10/04 07:04:00;;;;;;;2.23;0.47;;;;;;;22.03;35.45;99231.38;4959293;28;20161;-87
2022/10/04 07:06:37;;;;;;;1.60;0.70;;;;;;;21.93;36.11;99246.59;4959037;28;20634;-86
2022/10/04 07:09:06;;;;;;;1.10;0.60;;;;;;;21.84;36.43;99239.44;4957727;28;20191;-86
2022/10/04 07:11:44;;;;;;;5.20;0.60;;;;;;;21.66;36.95;99253.72;4957649;28;20188;-88
2022/10/04 07:14:29;;;;;;;1.43;0.50;;;;;;;21.52;36.82;99246.19;4957540;28;20204;-85
2022/10/04 07:17:01;;;;;;;1.43;0.80;;;;;;;21.28;37.88;99250.22;4958789;28;20278;-88
2022/10/04 07:19:30;;;;;;;0.90;0.50;;;;;;;21.32;37.41;99251.63;4957847;28;20206;-87
2022/10/04 07:22:19;;;;;;;0.97;0.43;;;;;;;20.92;37.45;99256.31;4958419;28;20571;-88
2022/10/04 07:24:48;;;;;;;1.33;0.67;;;;;;;20.92;37.74;99256.31;4960978;28;20197;-87
2022/10/04 07:27:22;;;;;;;1.83;0.53;;;;;;;20.89;37.85;99248.59;4958673;28;20181;-88
2022/10/04 07:29:53;;;;;;;0.50;0.27;;;;;;;21.10;37.72;99257.28;4958345;28;20201;-87
2022/10/04 07:32:20;;;;;;;1.73;0.40;;;;;;;21.11;37.96;99263.47;4957338;28;20180;-88
2022/10/04 07:34:58;;;;;;;1.77;0.70;;;;;;;21.21;37.95;99254.47;4958407;28;20201;-86
2022/10/04 07:37:27;;;;;;;0.80;0.43;;;;;;;21.39;37.24;99263.38;4957216;28;20185;-87
2022/10/04 07:40:17;;;;;;;3.07;0.40;;;;;;;21.31;36.76;99255.28;4957159;28;20180;-88
2022/10/04 07:42:43;;;;;;;2.07;0.40;;;;;;;21.53;37.17;99255.91;4957130;28;20188;-88
2022/10/04 07:45:19;;;;;;;1.53;0.80;;;;;;;21.69;36.63;99261.44;4958296;28;20176;-87
2022/10/04 07:47:45;;;;;;;0.37;0.23;;;;;;;21.32;36.80;99256.97;4958528;28;20165;-87
2022/10/04 07:50:51;;;;;;;6.97;0.67;;;;;;;21.29;36.64;99265.25;4956975;28;20604;-87
2022/10/04 07:53:29;;;;;;;0.40;0.30;;;;;;;21.31;36.78;99270.41;4957802;28;20196;-87
2022/10/04 07:56:01;;;;;;;0.97;0.57;;;;;;;21.48;37.31;99261.69;4958388;28;20255;-87
2022/10/04 07:58:56;;;;;;;6.37;0.97;;;;;;;21.63;37.42;99260.19;4957853;28;20209;-87
2022/10/04 08:01:54;;;;;;;0.60;0.40;;;;;;;21.63;37.52;99260.19;4957756;28;20525;-87
2022/10/04 08:04:45;;;;;;;0.80;0.30;;;;;;;21.53;37.06;99272.75;4964685;28;20193;-87
2022/10/04 08:07:23;;;;;;;2.53;0.33;;;;;;;21.67;36.84;99268.75;4958093;28;20598;-85
2022/10/04 08:10:12;;;;;;;0.40;0.20;;;;;;;21.40;36.72;99264.22;4957685;28;20545;-89
2022/10/04 08:12:46;;;;;;;2.10;0.37;;;;;;;21.35;37.00;99272.69;4957826;28;20169;-87
2022/10/04 08:15:22;;;;;;;0.73;0.30;;;;;;;21.35;36.99;99272.69;4957745;28;20184;-87
2022/10/04 08:17:56;;;;;;;1.70;0.37;;;;;;;21.35;37.09;99274.50;4957310;28;20211;-87
2022/10/04 08:20:43;;;;;;;0.43;0.27;;;;;;;21.54;36.68;99270.91;4957373;28;20223;-86
2022/10/04 08:23:23;;;;;;;8.53;0.67;;;;;;;21.39;36.72;99265.19;4957618;28;20169;-86
2022/10/04 08:26:26;;;;;;;5.90;0.60;;;;;;;21.58;36.18;99269.63;4956366;28;20264;-87
2022/10/04 08:29:58;;;;;;;3.63;0.50;;;;;;;21.78;36.15;99268.53;4957224;28;20249;-88
2022/10/04 08:32:44;;;;;;;0.40;0.20;;;;;;;21.92;36.32;99268.09;4962028;28;20204;-88
2022/10/04 08:35:32;;;;;;;0.77;0.33;;;;;;;22.24;35.68;99257.78;4957389;28;20200;-87
2022/10/04 08:38:20;;;;;;;1.57;0.53;;;;;;;22.09;35.20;99250.44;4956131;28;20649;-87
2022/10/04 08:41:06;;;;;;;0.83;0.30;;;;;;;22.18;35.45;99266.38;4957340;28;20172;-87
2022/10/04 08:43:55;;;;;;;0.77;0.30;;;;;;;22.44;35.63;99261.97;4955991;28;20181;-88
2022/10/04 08:46:42;;;;;;;3.10;0.50;;;;;;;22.40;35.08;99262.44;4956015;28;20220;-85
2022/10/04 08:49:38;;;;;;;0.80;0.30;;;;;;;22.59;35.48;99265.78;4955952;28;20199;-86
2022/10/04 08:52:29;;;;;;;1.37;0.60;;;;;;;22.59;34.53;99259.59;4957357;28;20227;-85
2022/10/04 08:54:57;;;;;;;2.87;0.30;;;;;;;22.71;34.66;99265.59;4955731;28;20197;-87
2022/10/04 08:57:25;;;;;;;0.30;0.23;;;;;;;22.86;34.50;99272.06;4955803;28;20187;-87
2022/10/04 09:00:19;;;;;;;1.73;0.30;;;;;;;22.95;34.15;99265.81;4956683;28;20173;-87
2022/10/04 09:03:00;;;;;;;1.13;0.23;;;;;;;23.07;34.40;99267.22;4956930;28;20177;-87
2022/10/04 09:05:40;;;;;;;1.77;0.37;;;;;;;23.07;34.12;99269.88;4956545;28;20701;-86
2022/10/04 09:08:28;;;;;;;1.37;0.40;;;;;;;23.33;33.86;99268.06;4956542;28;20522;-86
2022/10/04 09:11:11;;;;;;;0.53;0.30;;;;;;;23.56;33.82;99268.38;4956494;28;20190;-86
2022/10/04 09:13:45;;;;;;;0.40;0.30;;;;;;;23.39;33.12;99277.31;4956308;28;20729;-86
2022/10/04 09:16:16;;;;;;;0.40;0.30;;;;;;;23.16;32.67;99274.31;4956270;28;20601;-86
2022/10/04 09:18:49;;;;;;;3.20;0.30;;;;;;;23.36;33.40;99273.09;4955442;28;20184;-88
2022/10/04 09:21:41;;;;;;;1.23;0.40;;;;;;;23.21;33.17;99272.00;4954844;28;20185;-87
2022/10/04 09:24:35;;;;;;;0.70;0.40;;;;;;;23.38;33.31;99271.13;4956358;28;20268;-87
2022/10/04 09:27:29;;;;;;;0.33;0.20;;;;;;;23.42;33.16;99275.19;4955214;28;20243;-86
2022/10/04 09:30:16;;;;;;;2.87;0.50;;;;;;;23.65;33.08;99270.97;4955205;28;20212;-86
2022/10/04 09:33:24;;;;;;;0.87;0.40;;;;;;;23.25;33.20;99279.56;4955887;28;20188;-88
2022/10/04 09:36:18;;;;;;;0.77;0.30;;;;;;;23.37;33.39;99271.31;4971316;28;20669;-89
2022/10/04 09:39:02;;;;;;;1.30;0.47;;;;;;;23.92;32.99;99266.38;4956202;28;20715;-88
2022/10/04 09:41:51;;;;;;;0.40;0.20;;;;;;;24.11;32.09;99271.50;4955199;28;20521;-86
2022/10/04 09:44:32;;;;;;;1.00;0.27;;;;;;;24.14;31.42;99265.81;4954943;28;20201;-88
2022/10/04 09:47:20;;;;;;;0.20;0.20;;;;;;;24.20;31.52;99257.13;4954877;28;20177;-86
2022/10/04 09:49:46;;;;;;;1.80;0.67;;;;;;;24.48;31.29;99263.88;4954790;28;20176;-86
2022/10/04 09:52:33;;;;;;;0.90;0.27;;;;;;;24.79;31.04;99250.69;4954728;28;20185;-86
2022/10/04 09:55:36;;;;;;;0.40;0.20;;;;;;;25.13;30.80;99258.56;4954652;28;20641;-86
2022/10/04 09:58:08;;;;;;;2.43;0.70;;;;;;;24.99;30.41;99260.06;4954629;28;20188;-88
2022/10/04 10:01:10;;;;;;;1.90;0.37;;;;;;;24.41;30.51;99262.84;4955546;28;20187;-87
2022/10/04 10:04:01;;;;;;;1.27;0.30;;;;;;;24.23;31.37;99256.78;4963835;28;20295;-87
2022/10/04 10:07:03;;;;;;;0.77;0.30;;;;;;;24.34;31.38;99253.81;4954554;28;20181;-88
2022/10/04 10:16:00;;;;;;;1.43;0.53;;;;;;;24.53;31.07;99261.53;4955610;29;20184;-86
2022/10/04 10:18:47;;;;;;;0.57;0.30;;;;;;;24.47;31.10;99262.22;4954317;28;20240;-86
2022/10/04 10:21:15;;;;;;;0.60;0.30;;;;;;;24.63;30.43;99250.66;4954353;28;20173;-86
2022/10/04 10:23:59;;;;;;;7.30;0.30;;;;;;;24.78;29.42;99251.66;4955198;28;20244;-87
2022/10/04 10:26:55;;;;;;;1.00;0.57;;;;;;;25.19;29.12;99252.47;4954302;28;20192;-87
2022/10/04 10:29:24;;;;;;;2.83;0.37;;;;;;;25.00;29.37;99251.00;4954099;28;20677;-86
2022/10/04 10:31:57;;;;;;;1.73;0.40;;;;;;;25.20;29.02;99248.81;4955148;28;20600;-85
2022/10/04 10:35:00;;;;;;;1.70;0.30;;;;;;;25.37;29.33;99243.22;4954215;28;20216;-88
2022/10/04 10:37:34;;;;;;;0.20;0.20;;;;;;;25.38;28.48;99255.66;4954123;28;20180;-86
2022/10/04 10:40:30;;;;;;;0.63;0.20;;;;;;;25.57;27.78;99247.25;4954111;28;20176;-88
2022/10/04 10:43:08;;;;;;;3.10;0.47;;;;;;;25.96;27.86;99243.72;4954057;28;20173;-87
2022/10/04 10:45:55;;;;;;;0.47;0.10;;;;;;;26.15;27.92;99236.06;4954069;28;20252;-87
2022/10/04 10:48:23;;;;;;;0.57;0.10;;;;;;;26.15;26.80;99246.00;4955521;28;20599;-87
2022/10/04 10:51:00;;;;;;;0.17;0.10;;;;;;;26.00;26.66;99243.19;4954951;28;20181;-89
2022/10/04 10:53:31;;;;;;;0.57;0.20;;;;;;;25.74;27.77;99252.53;4953929;28;20196;-87
2022/10/04 10:56:29;;;;;;;0.93;0.20;;;;;;;25.51;28.10;99252.44;4954890;28;20189;-87
2022/10/04 10:59:28;;;;;;;0.43;0.20;;;;;;;25.42;27.60;99256.16;4955434;28;20256;-87
2022/10/04 11:02:00;;;;;;;0.10;0.10;;;;;;;24.90;28.11;99261.91;4955136;28;20180;-86
2022/10/04 11:05:01;;;;;;;0.33;0.10;;;;;;;24.94;28.35;99255.22;4954420;28;20525;-86
2022/10/04 11:07:56;;;;;;;1.90;0.20;;;;;;;24.45;27.93;99265.03;4953490;28;20197;-87
2022/10/04 11:10:45;;;;;;;0.40;0.10;;;;;;;24.41;28.46;99252.13;4955283;28;20240;-87
2022/10/04 11:13:47;;;;;;;4.33;0.30;;;;;;;24.22;29.16;99261.31;4953734;28;20228;-86
2022/10/04 11:16:21;;;;;;;2.17;0.30;;;;;;;24.16;29.81;99263.81;4956669;28;20282;-87
2022/10/04 11:18:49;;;;;;;0.27;0.10;;;;;;;23.75;29.91;99266.31;4958208;28;20611;-87
2022/10/04 11:21:20;;;;;;;2.13;0.87;;;;;;;23.75;30.87;99277.03;4953659;28;20181;-87
2022/10/04 11:24:23;;;;;;;0.27;0.10;;;;;;;23.96;31.30;99276.59;4953707;28;20188;-88
2022/10/04 11:27:42;;;;;;;0.27;0.20;;;;;;;23.97;32.09;99278.28;4953726;28;20596;-88
2022/10/04 11:30:23;;;;;;;0.87;0.20;;;;;;;23.95;31.81;99279.44;4961654;28;20213;-88
2022/10/04 11:33:05;;;;;;;0.27;0.10;;;;;;;23.92;31.89;99275.25;4954772;28;20169;-89
2022/10/04 11:35:48;;;;;;;0.20;0.10;;;;;;;23.89;32.40;99272.06;4954844;28;20170;-87
2022/10/04 11:38:19;;;;;;;4.60;0.20;;;;;;;23.87;32.18;99274.91;4955082;28;20180;-87
2022/10/04 11:41:22;;;;;;;3.20;0.10;;;;;;;24.09;31.86;99278.84;4953569;28;20220;-87
2022/10/04 11:44:14;;;;;;;0.20;0.10;;;;;;;24.09;31.40;99268.13;4954495;28;20280;-87
2022/10/04 11:46:46;;;;;;;0.20;0.10;;;;;;;24.11;31.00;99277.69;4956917;28;20209;-88
2022/10/04 11:49:35;;;;;;;1.07;0.20;;;;;;;23.90;30.42;99279.09;4957945;28;20180;-87
2022/10/04 11:52:15;;;;;;;1.90;0.30;;;;;;;23.83;30.25;99274.38;4956991;28;20233;-85
2022/10/04 11:55:02;;;;;;;0.63;0.20;;;;;;;24.02;30.07;99277.78;4956847;28;20193;-87
2022/10/04 11:57:53;;;;;;;0.10;0.10;;;;;;;24.12;29.96;99274.00;4956888;28;20192;-87
2022/10/04 12:00:22;;;;;;;0.47;0.20;;;;;;;24.13;29.99;99269.50;4957751;28;20161;-87
2022/10/04 12:02:53;;;;;;;0.33;0.10;;;;;;;24.26;30.29;99272.53;4958031;28;20184;-86
2022/10/04 12:05:48;;;;;;;0.43;0.20;;;;;;;24.36;29.83;99281.28;4956745;28;20173;-86
2022/10/04 12:08:37;;;;;;;0.33;0.23;;;;;;;24.44;30.09;99281.28;4956650;28;20188;-86
2022/10/04 12:11:05;;;;;;;1.20;0.27;;;;;;;24.53;29.47;99282.97;4957905;28;20188;-86
2022/10/04 12:13:50;;;;;;;0.20;0.10;;;;;;;24.44;29.30;99287.50;4956496;28;20264;-86
2022/10/04 12:16:37;;;;;;;0.67;0.20;;;;;;;24.29;29.62;99286.44;4957812;28;20173;-87
2022/10/04 12:19:24;;;;;;;0.60;0.20;;;;;;;24.29;29.75;99285.63;4956461;28;20184;-86
2022/10/04 12:22:06;;;;;;;0.60;0.30;;;;;;;24.27;29.80;99287.59;4956453;28;20177;-86
2022/10/04 12:25:03;;;;;;;0.10;0.10;;;;;;;24.03;30.08;99290.19;4957668;28;20172;-85
2022/10/04 12:27:50;;;;;;;0.17;0.13;;;;;;;23.88;29.77;99289.09;4957576;28;20168;-86
2022/10/04 12:30:21;;;;;;;0.33;0.20;;;;;;;24.03;29.36;99284.84;4957385;28;20265;-85
2022/10/04 12:33:12;;;;;;;0.40;0.20;;;;;;;24.15;29.62;99284.41;4957452;28;20208;-87
2022/10/04 12:36:12;;;;;;;0.20;0.10;;;;;;;24.14;29.61;99282.72;4957735;28;20180;-86
2022/10/04 12:39:05;;;;;;;1.07;0.50;;;;;;;23.82;29.45;99294.09;4956150;28;20188;-85